Time;durP1;ratioP1;P1;durP2;ratioP2;P2;SDS_P1;SDS_P2;PMS_P1;PMS_P2;Temp;Humidity;BMP_temperature;BMP_pressure;BME280_temperature;BME280_humidity;BME280_pressure;Samples;Min_cycle;Max_cycle;Signal;HPM_P1;HPM_P2
2023/08/10 00:02:05;;;;;;;1.13;0.93;;;22.80;54.50;;;;;;5079011;28;20024;-67
2023/08/10 00:04:30;;;;;;;1.40;0.85;;;22.80;54.40;;;;;;5082530;28;20092;-68
2023/08/10 00:06:56;;;;;;;1.02;0.70;;;22.80;54.50;;;;;;5078088;28;20424;-68
2023/08/10 00:09:22;;;;;;;1.00;0.70;;;22.80;54.50;;;;;;5078799;28;20466;-68
2023/08/10 00:11:47;;;;;;;1.35;0.80;;;22.80;54.50;;;;;;5080344;28;20025;-68
2023/08/10 00:14:13;;;;;;;1.23;0.80;;;22.80;54.60;;;;;;5080246;28;20480;-69
2023/08/10 00:16:38;;;;;;;0.90;0.80;;;22.80;54.50;;;;;;5079123;28;20038;-68
2023/08/10 00:19:04;;;;;;;1.95;0.90;;;22.80;54.50;;;;;;5079147;28;20039;-69
2023/08/10 00:21:30;;;;;;;1.00;0.80;;;22.80;54.50;;;;;;5077864;28;20466;-67
2023/08/10 00:23:56;;;;;;;0.95;0.77;;;22.80;54.50;;;;;;5082597;28;20032;-67
2023/08/10 00:26:25;;;;;;;0.80;0.70;;;22.80;54.50;;;;;;5079485;28;20020;-67
2023/08/10 00:28:51;;;;;;;1.58;0.90;;;22.70;54.50;;;;;;5067709;28;20460;-68
2023/08/10 00:31:17;;;;;;;1.30;0.70;;;22.80;54.60;;;;;;5078301;28;20483;-67
2023/08/10 00:33:43;;;;;;;1.30;0.70;;;22.80;54.50;;;;;;5077896;28;20029;-66
2023/08/10 00:36:09;;;;;;;0.95;0.70;;;22.80;54.60;;;;;;5077462;28;20086;-66
2023/08/10 00:38:36;;;;;;;0.90;0.70;;;22.70;54.50;;;;;;5078231;28;20028;-68
2023/08/10 00:41:02;;;;;;;1.17;0.80;;;22.70;54.50;;;;;;5078839;28;20024;-66
2023/08/10 00:43:28;;;;;;;0.90;0.80;;;22.70;54.60;;;;;;5078018;28;20031;-69
2023/08/10 00:45:54;;;;;;;1.30;0.80;;;22.70;54.60;;;;;;5077914;28;20028;-68
2023/08/10 00:48:21;;;;;;;1.65;0.90;;;22.70;54.60;;;;;;5079850;28;20030;-68
2023/08/10 00:50:48;;;;;;;1.08;0.80;;;22.80;54.60;;;;;;5078759;28;20154;-68
2023/08/10 00:53:14;;;;;;;1.58;0.90;;;22.70;54.60;;;;;;5079171;28;20511;-69
2023/08/10 00:55:42;;;;;;;1.35;0.73;;;22.70;54.60;;;;;;5061087;28;20499;-68
2023/08/10 00:58:11;;;;;;;1.00;0.77;;;22.70;54.60;;;;;;5064280;28;20028;-69
2023/08/10 01:00:36;;;;;;;1.55;0.93;;;22.70;54.70;;;;;;5076080;28;20078;-69
2023/08/10 01:03:02;;;;;;;1.05;0.80;;;22.70;54.60;;;;;;5075818;28;20059;-69
2023/08/10 01:05:33;;;;;;;0.88;0.70;;;22.70;54.60;;;;;;5080474;28;20059;-69
2023/08/10 01:08:08;;;;;;;1.25;0.70;;;22.70;54.60;;;;;;5062285;28;20035;-70
2023/08/10 01:10:47;;;;;;;1.15;0.80;;;22.70;54.60;;;;;;5078408;28;20143;-70
2023/08/10 01:13:25;;;;;;;0.93;0.70;;;22.70;54.60;;;;;;5078024;28;20028;-69
2023/08/10 01:15:54;;;;;;;1.55;0.80;;;22.70;54.60;;;;;;5078814;28;20101;-69
2023/08/10 01:18:26;;;;;;;1.45;0.88;;;22.70;54.60;;;;;;5078335;28;20398;-69
2023/08/10 01:20:54;;;;;;;1.70;0.90;;;22.70;54.60;;;;;;5061005;28;20025;-69
2023/08/10 01:23:35;;;;;;;1.30;0.80;;;22.70;54.60;;;;;;5077227;28;20035;-68
2023/08/10 01:26:02;;;;;;;0.98;0.70;;;22.70;54.60;;;;;;5079527;28;20191;-68
2023/08/10 01:28:29;;;;;;;1.17;0.80;;;22.70;55.10;;;;;;5077592;28;20157;-67
2023/08/10 01:30:55;;;;;;;1.35;0.80;;;22.70;54.60;;;;;;5078164;28;20476;-68
2023/08/10 01:33:20;;;;;;;0.98;0.73;;;22.70;54.60;;;;;;5077189;28;20032;-68
2023/08/10 01:35:46;;;;;;;0.70;0.70;;;22.70;54.50;;;;;;5079993;28;20036;-68
2023/08/10 01:38:12;;;;;;;2.28;0.85;;;22.70;54.50;;;;;;5062816;28;20024;-68
2023/08/10 01:40:38;;;;;;;0.98;0.80;;;22.60;54.50;;;;;;5077892;28;20107;-69
2023/08/10 01:43:04;;;;;;;1.15;0.77;;;22.70;54.50;;;;;;5068927;28;20025;-67
2023/08/10 01:45:30;;;;;;;1.50;0.82;;;22.60;54.50;;;;;;5080218;28;20028;-68
2023/08/10 01:48:21;;;;;;;1.95;0.85;;;22.60;54.40;;;;;;5077028;28;20200;-68
2023/08/10 01:50:50;;;;;;;1.20;0.70;;;22.70;54.50;;;;;;5068324;28;20403;-67
2023/08/10 01:53:18;;;;;;;1.23;0.80;;;22.70;54.50;;;;;;5079142;28;20478;-67
2023/08/10 01:55:44;;;;;;;1.20;0.70;;;22.70;54.50;;;;;;5077750;28;20102;-68
2023/08/10 01:58:10;;;;;;;1.25;0.73;;;22.70;54.50;;;;;;5076712;28;20119;-68
2023/08/10 02:00:37;;;;;;;1.00;0.70;;;22.60;54.40;;;;;;5079357;28;20469;-68
2023/08/10 02:03:04;;;;;;;1.42;0.77;;;22.60;54.40;;;;;;5057015;28;20032;-68
2023/08/10 02:05:31;;;;;;;1.05;0.70;;;22.60;54.40;;;;;;5077435;28;20056;-68
2023/08/10 02:07:57;;;;;;;0.80;0.60;;;22.60;54.40;;;;;;5058240;28;20024;-68
2023/08/10 02:10:22;;;;;;;1.00;0.70;;;22.60;54.30;;;;;;5077369;28;20056;-67
2023/08/10 02:12:48;;;;;;;0.82;0.70;;;22.60;54.30;;;;;;5077432;28;20021;-67
2023/08/10 02:15:13;;;;;;;1.15;0.90;;;22.60;54.30;;;;;;5076377;28;20024;-68
2023/08/10 02:17:40;;;;;;;1.42;1.00;;;22.60;54.40;;;;;;5059994;28;20035;-68
2023/08/10 02:20:13;;;;;;;0.80;0.70;;;22.60;54.30;;;;;;5080234;28;20031;-68
2023/08/10 02:22:48;;;;;;;1.00;0.80;;;22.60;54.30;;;;;;5082113;28;20549;-67
2023/08/10 02:25:14;;;;;;;1.20;0.73;;;22.60;54.30;;;;;;5081837;28;20043;-67
2023/08/10 02:27:40;;;;;;;0.77;0.65;;;22.60;54.80;;;;;;5081147;28;20036;-67
2023/08/10 02:30:07;;;;;;;1.55;0.80;;;22.60;54.30;;;;;;5083131;28;20361;-67
2023/08/10 02:32:33;;;;;;;1.10;0.75;;;22.60;54.30;;;;;;5077867;28;20021;-66
2023/08/10 02:34:59;;;;;;;0.93;0.60;;;22.60;54.30;;;;;;5080770;28;20431;-68
2023/08/10 02:37:25;;;;;;;1.10;0.70;;;22.60;54.30;;;;;;5081014;28;20100;-68
2023/08/10 02:39:50;;;;;;;1.17;0.80;;;22.60;54.30;;;;;;5080836;28;20028;-67
2023/08/10 02:42:16;;;;;;;0.63;0.60;;;22.60;54.30;;;;;;5081118;28;20031;-66
2023/08/10 02:44:43;;;;;;;1.10;0.80;;;22.60;54.30;;;;;;5081164;28;20497;-67
2023/08/10 02:47:08;;;;;;;0.80;0.65;;;22.60;54.30;;;;;;5070007;28;20033;-67
2023/08/10 02:49:34;;;;;;;1.02;0.70;;;22.60;54.30;;;;;;5080220;28;20987;-67
2023/08/10 02:52:00;;;;;;;1.00;0.70;;;22.60;54.20;;;;;;5079546;28;20028;-68
2023/08/10 02:54:25;;;;;;;1.52;0.90;;;22.60;54.30;;;;;;5066443;28;20381;-66
2023/08/10 02:56:51;;;;;;;1.35;0.80;;;22.60;54.20;;;;;;5082574;28;20024;-67
2023/08/10 02:59:17;;;;;;;0.93;0.75;;;22.60;54.20;;;;;;5081000;28;20051;-67
2023/08/10 03:01:45;;;;;;;1.10;0.80;;;22.60;54.20;;;;;;5080037;28;20469;-67
2023/08/10 03:04:12;;;;;;;0.85;0.68;;;22.60;54.20;;;;;;5072100;28;20252;-68
2023/08/10 03:06:38;;;;;;;0.82;0.70;;;22.60;54.20;;;;;;5082237;28;20028;-68
2023/08/10 03:09:04;;;;;;;1.10;0.80;;;22.60;54.20;;;;;;5080398;28;20468;-68
2023/08/10 03:11:30;;;;;;;0.95;0.70;;;22.60;54.20;;;;;;5063192;28;20024;-68
2023/08/10 03:13:56;;;;;;;0.65;0.65;;;22.60;54.20;;;;;;5080424;28;20496;-67
2023/08/10 03:16:22;;;;;;;0.75;0.70;;;22.60;54.20;;;;;;5080204;28;20051;-67
2023/08/10 03:18:47;;;;;;;0.80;0.70;;;22.50;54.10;;;;;;5063991;28;20411;-67
2023/08/10 03:21:13;;;;;;;0.60;0.60;;;22.50;54.10;;;;;;5080708;28;20035;-67
2023/08/10 03:23:39;;;;;;;0.70;0.60;;;22.60;54.20;;;;;;5080610;28;20079;-67
2023/08/10 03:26:04;;;;;;;0.65;0.60;;;22.60;54.20;;;;;;5063737;28;20032;-68
2023/08/10 03:28:30;;;;;;;1.10;0.70;;;22.60;54.20;;;;;;5081508;28;20413;-68
2023/08/10 03:30:55;;;;;;;0.80;0.60;;;22.60;54.20;;;;;;5080294;28;20024;-68
2023/08/10 03:33:21;;;;;;;1.65;0.70;;;22.60;54.20;;;;;;5078329;28;20855;-67
2023/08/10 03:35:47;;;;;;;0.95;0.70;;;22.50;54.10;;;;;;5082991;28;20039;-69
2023/08/10 03:38:12;;;;;;;0.60;0.60;;;22.50;54.10;;;;;;5079148;28;20075;-68
2023/08/10 03:40:38;;;;;;;0.75;0.70;;;22.50;54.10;;;;;;5080142;28;20035;-68
2023/08/10 03:43:04;;;;;;;1.08;0.80;;;22.50;54.10;;;;;;5078829;28;20060;-68
2023/08/10 03:45:30;;;;;;;0.60;0.60;;;22.50;54.10;;;;;;5078975;28;20617;-69
2023/08/10 03:47:56;;;;;;;0.73;0.70;;;22.50;54.10;;;;;;5078471;28;20131;-69
2023/08/10 03:50:21;;;;;;;1.25;0.80;;;22.50;54.00;;;;;;5080369;28;20060;-68
2023/08/10 03:52:47;;;;;;;0.82;0.70;;;22.50;54.10;;;;;;5080125;28;20800;-68
2023/08/10 03:55:14;;;;;;;0.82;0.70;;;22.50;54.10;;;;;;5079284;28;20047;-69
2023/08/10 03:57:40;;;;;;;0.88;0.70;;;22.50;54.60;;;;;;5079108;28;20081;-69
2023/08/10 04:00:06;;;;;;;0.90;0.60;;;22.50;54.00;;;;;;5063392;28;20032;-69
2023/08/10 04:02:32;;;;;;;0.60;0.60;;;22.50;54.00;;;;;;5063196;28;20029;-69
2023/08/10 04:04:58;;;;;;;0.75;0.60;;;22.50;54.00;;;;;;5077314;28;20503;-69
2023/08/10 04:07:24;;;;;;;1.17;0.70;;;22.50;54.00;;;;;;5081231;28;20430;-69
2023/08/10 04:09:49;;;;;;;0.90;0.70;;;22.50;54.00;;;;;;5065811;28;20027;-68
2023/08/10 04:12:16;;;;;;;0.88;0.70;;;22.50;54.00;;;;;;5079191;28;20025;-68
2023/08/10 04:14:41;;;;;;;1.17;0.75;;;22.50;54.00;;;;;;5079481;28;20395;-69
2023/08/10 04:17:07;;;;;;;1.15;0.55;;;22.50;54.10;;;;;;5080352;28;20032;-68
2023/08/10 04:19:33;;;;;;;0.90;0.60;;;22.50;54.00;;;;;;5076242;28;20037;-69
2023/08/10 04:21:58;;;;;;;0.60;0.60;;;22.50;54.00;;;;;;5078782;28;20071;-69
2023/08/10 04:24:24;;;;;;;0.75;0.60;;;22.50;54.00;;;;;;5078503;28;20376;-70
2023/08/10 04:26:49;;;;;;;0.93;0.63;;;22.50;54.00;;;;;;5078799;28;20028;-69
2023/08/10 04:29:16;;;;;;;0.98;0.60;;;22.50;54.00;;;;;;5079187;28;20088;-69
2023/08/10 04:31:42;;;;;;;0.57;0.50;;;22.50;54.00;;;;;;5079574;28;20020;-69
2023/08/10 04:34:08;;;;;;;1.33;1.00;;;22.50;54.00;;;;;;5062856;28;20480;-69
2023/08/10 04:36:34;;;;;;;0.90;0.70;;;22.50;54.00;;;;;;5078220;28;20035;-69
2023/08/10 04:39:00;;;;;;;1.00;0.70;;;22.50;54.00;;;;;;5078437;28;20031;-68
2023/08/10 04:41:25;;;;;;;0.88;0.65;;;22.50;54.00;;;;;;5079222;28;20032;-68
2023/08/10 04:43:51;;;;;;;0.90;0.70;;;22.50;54.00;;;;;;5076652;28;20044;-66
2023/08/10 04:46:17;;;;;;;0.68;0.60;;;22.50;54.00;;;;;;5078404;28;20036;-68
2023/08/10 04:48:43;;;;;;;0.85;0.70;;;22.50;54.00;;;;;;5076959;28;20107;-68
2023/08/10 04:51:08;;;;;;;0.93;0.70;;;22.50;54.00;;;;;;5079738;28;20091;-67
2023/08/10 04:53:34;;;;;;;1.17;0.60;;;22.50;54.00;;;;;;5077968;28;20078;-67
2023/08/10 04:56:00;;;;;;;0.80;0.68;;;22.50;54.00;;;;;;5079076;28;20046;-67
2023/08/10 04:58:26;;;;;;;0.60;0.60;;;22.50;54.00;;;;;;5077799;28;20139;-67
2023/08/10 05:00:52;;;;;;;0.98;0.73;;;22.40;53.90;;;;;;5069595;28;20124;-67
2023/08/10 05:03:20;;;;;;;0.73;0.63;;;22.40;53.90;;;;;;5078471;28;20028;-68
2023/08/10 05:05:46;;;;;;;0.88;0.68;;;22.40;54.00;;;;;;5078921;28;20032;-65
2023/08/10 05:08:11;;;;;;;0.57;0.57;;;22.50;54.00;;;;;;5078696;28;20024;-66
2023/08/10 05:10:37;;;;;;;0.65;0.60;;;22.40;53.90;;;;;;5077569;28;20085;-65
2023/08/10 05:13:04;;;;;;;0.77;0.70;;;22.40;53.90;;;;;;5068664;28;20444;-66
2023/08/10 05:15:30;;;;;;;0.65;0.63;;;22.40;53.90;;;;;;5078618;28;20024;-68
2023/08/10 05:17:55;;;;;;;0.68;0.60;;;22.50;54.00;;;;;;5075752;28;20111;-69
2023/08/10 05:20:21;;;;;;;0.60;0.60;;;22.50;53.90;;;;;;5078554;28;20034;-68
2023/08/10 05:22:47;;;;;;;0.73;0.60;;;22.40;53.90;;;;;;5080461;28;20039;-69
2023/08/10 05:25:14;;;;;;;0.57;0.55;;;22.40;53.90;;;;;;5079002;28;20865;-67
2023/08/10 05:27:39;;;;;;;0.60;0.60;;;22.40;53.90;;;;;;5079586;28;20391;-68
2023/08/10 05:30:11;;;;;;;0.70;0.60;;;22.40;53.90;;;;;;5079605;28;20016;-69
2023/08/10 05:32:43;;;;;;;0.98;0.55;;;22.40;53.90;;;;;;5078687;28;20372;-69
2023/08/10 05:35:09;;;;;;;1.63;0.60;;;22.40;53.90;;;;;;5075365;28;20376;-67
2023/08/10 05:37:35;;;;;;;0.60;0.60;;;22.40;53.90;;;;;;5078951;28;20024;-68
2023/08/10 05:40:02;;;;;;;0.63;0.52;;;22.40;53.90;;;;;;5076857;28;20040;-67
2023/08/10 05:42:28;;;;;;;0.60;0.60;;;22.40;53.90;;;;;;5076640;28;20028;-67
2023/08/10 05:44:54;;;;;;;0.70;0.60;;;22.40;53.90;;;;;;5077800;28;20475;-67
2023/08/10 05:47:19;;;;;;;0.63;0.63;;;22.40;54.40;;;;;;5078988;28;20024;-68
2023/08/10 05:49:45;;;;;;;0.80;0.60;;;22.40;53.90;;;;;;5060896;28;20024;-68
2023/08/10 05:52:10;;;;;;;0.85;0.70;;;22.40;53.90;;;;;;5067857;28;20891;-67
2023/08/10 05:54:36;;;;;;;0.80;0.60;;;22.40;53.90;;;;;;5080992;28;20021;-68
2023/08/10 05:57:02;;;;;;;0.60;0.50;;;22.40;53.90;;;;;;5080537;28;20036;-68
2023/08/10 05:59:27;;;;;;;0.50;0.45;;;22.40;53.90;;;;;;5078598;28;20024;-68
2023/08/10 06:01:56;;;;;;;0.75;0.60;;;22.40;53.90;;;;;;5080748;28;20033;-67
2023/08/10 06:04:21;;;;;;;0.60;0.50;;;22.40;53.90;;;;;;5077388;28;20025;-68
2023/08/10 06:06:47;;;;;;;0.50;0.50;;;22.40;53.90;;;;;;5080151;28;20051;-68
2023/08/10 06:09:13;;;;;;;0.80;0.70;;;22.40;53.90;;;;;;5074976;28;20037;-68
2023/08/10 06:11:39;;;;;;;0.80;0.50;;;22.40;53.90;;;;;;5080117;28;20480;-67
2023/08/10 06:14:05;;;;;;;0.73;0.63;;;22.40;53.90;;;;;;5077353;28;20349;-68
2023/08/10 06:16:30;;;;;;;0.50;0.50;;;22.40;53.90;;;;;;5077691;28;20116;-68
2023/08/10 06:18:56;;;;;;;0.65;0.60;;;22.40;53.90;;;;;;5077269;28;20024;-67
2023/08/10 06:21:22;;;;;;;1.17;0.60;;;22.40;53.90;;;;;;5075786;28;20028;-68
2023/08/10 06:23:48;;;;;;;0.80;0.57;;;22.40;53.90;;;;;;5077247;28;20088;-66
2023/08/10 06:26:13;;;;;;;0.60;0.60;;;22.30;53.80;;;;;;5078046;28;20543;-66
2023/08/10 06:28:39;;;;;;;0.60;0.60;;;22.40;53.90;;;;;;5078902;28;20021;-66
2023/08/10 06:31:13;;;;;;;0.60;0.50;;;22.30;53.80;;;;;;5061832;28;20115;-65
2023/08/10 06:33:39;;;;;;;0.65;0.60;;;22.40;53.90;;;;;;5059970;28;20487;-67
2023/08/10 06:36:06;;;;;;;0.60;0.60;;;22.40;53.90;;;;;;5079299;28;20033;-68
2023/08/10 06:38:35;;;;;;;0.75;0.68;;;22.40;53.90;;;;;;5077180;28;20384;-67
2023/08/10 06:41:01;;;;;;;0.70;0.60;;;22.40;53.90;;;;;;5075410;28;20025;-67
2023/08/10 06:43:27;;;;;;;0.85;0.70;;;22.40;53.90;;;;;;5061903;28;20060;-67
2023/08/10 06:45:53;;;;;;;0.60;0.60;;;22.30;53.80;;;;;;5078310;28;20099;-67
2023/08/10 06:48:19;;;;;;;0.75;0.60;;;22.30;53.80;;;;;;5078792;28;20036;-67
2023/08/10 06:50:45;;;;;;;0.60;0.60;;;22.30;53.80;;;;;;5076372;28;20024;-67
2023/08/10 06:53:11;;;;;;;0.60;0.60;;;22.30;53.80;;;;;;5076269;28;20092;-67
2023/08/10 06:55:38;;;;;;;0.82;0.63;;;22.30;53.80;;;;;;5076075;28;20585;-67
2023/08/10 06:58:05;;;;;;;1.05;0.70;;;22.30;53.80;;;;;;5076101;28;20443;-67
2023/08/10 07:00:31;;;;;;;0.80;0.70;;;22.30;53.80;;;;;;5077559;28;20055;-67
2023/08/10 07:02:58;;;;;;;0.85;0.70;;;22.30;53.80;;;;;;5077354;28;20033;-67
2023/08/10 07:05:26;;;;;;;1.13;0.50;;;22.30;53.80;;;;;;5075187;28;20047;-66
2023/08/10 07:07:52;;;;;;;1.00;0.63;;;22.30;53.80;;;;;;5064195;28;20044;-65
2023/08/10 07:10:18;;;;;;;0.82;0.80;;;22.30;53.80;;;;;;5084058;28;20114;-65
2023/08/10 07:12:44;;;;;;;0.60;0.60;;;22.30;53.80;;;;;;5081290;28;20085;-66
2023/08/10 07:15:10;;;;;;;0.60;0.60;;;22.30;53.80;;;;;;5080901;28;20583;-66
2023/08/10 07:17:36;;;;;;;0.60;0.60;;;22.30;53.80;;;;;;5063921;28;20077;-64
2023/08/10 07:20:04;;;;;;;0.63;0.60;;;22.30;53.80;;;;;;5080817;28;20475;-65
2023/08/10 07:22:30;;;;;;;0.40;0.40;;;22.30;53.80;;;;;;5062357;28;20047;-65
2023/08/10 07:24:56;;;;;;;0.60;0.60;;;22.30;53.80;;;;;;5078973;28;20521;-64
2023/08/10 07:27:21;;;;;;;0.60;0.60;;;22.30;53.80;;;;;;5081303;28;20103;-65
2023/08/10 07:29:47;;;;;;;0.80;0.70;;;22.30;53.80;;;;;;5076975;28;20030;-65
2023/08/10 07:32:13;;;;;;;0.75;0.60;;;22.30;53.80;;;;;;5078798;28;20146;-66
2023/08/10 07:34:39;;;;;;;0.65;0.60;;;22.30;53.80;;;;;;5078739;28;20071;-66
2023/08/10 07:37:05;;;;;;;0.73;0.60;;;22.30;53.80;;;;;;5079237;28;20122;-66
2023/08/10 07:39:30;;;;;;;0.95;0.60;;;22.30;53.80;;;;;;5079523;28;20369;-66
2023/08/10 07:41:56;;;;;;;0.60;0.60;;;22.30;53.80;;;;;;5081283;28;20100;-66
2023/08/10 07:44:22;;;;;;;0.88;0.60;;;22.30;54.30;;;;;;5080228;28;20078;-65
2023/08/10 07:46:48;;;;;;;0.95;0.55;;;22.30;53.80;;;;;;5078716;28;20059;-65
2023/08/10 07:49:17;;;;;;;0.60;0.60;;;22.20;53.80;;;;;;5079593;28;20113;-66
2023/08/10 07:51:47;;;;;;;0.90;0.75;;;22.30;53.80;;;;;;5064872;28;20028;-66
2023/08/10 07:54:15;;;;;;;0.70;0.68;;;22.30;53.80;;;;;;5079158;28;20114;-65
2023/08/10 07:56:42;;;;;;;0.60;0.60;;;22.30;53.80;;;;;;5079178;28;20032;-65
2023/08/10 07:59:07;;;;;;;0.50;0.50;;;22.30;53.80;;;;;;5079759;28;20503;-65
2023/08/10 08:01:33;;;;;;;0.73;0.60;;;22.30;53.80;;;;;;5063820;28;20029;-66
2023/08/10 08:03:59;;;;;;;0.82;0.70;;;22.30;53.80;;;;;;5065604;28;20058;-65
2023/08/10 08:06:24;;;;;;;1.13;0.63;;;22.30;53.80;;;;;;5078793;28;20372;-65
2023/08/10 08:08:50;;;;;;;0.98;0.60;;;22.20;53.80;;;;;;5078789;28;20074;-65
2023/08/10 08:11:16;;;;;;;0.85;0.60;;;22.30;53.90;;;;;;5080616;28;20027;-66
2023/08/10 08:13:41;;;;;;;0.70;0.60;;;22.30;53.90;;;;;;5079981;28;20060;-68
2023/08/10 08:16:07;;;;;;;1.05;0.60;;;22.30;53.90;;;;;;5060233;28;20535;-68
2023/08/10 08:18:57;;;;;;;1.10;0.70;;;22.30;53.90;;;;;;5080263;28;20077;-68
2023/08/10 08:21:28;;;;;;;0.80;0.60;;;22.30;53.90;;;;;;5078020;28;20533;-68
2023/08/10 08:23:55;;;;;;;0.70;0.60;;;22.30;53.90;;;;;;5077716;28;20035;-68
2023/08/10 08:26:26;;;;;;;0.68;0.60;;;22.30;53.90;;;;;;5064364;28;20029;-68
2023/08/10 08:28:52;;;;;;;1.15;0.57;;;22.30;54.40;;;;;;5079595;28;20487;-68
2023/08/10 08:31:18;;;;;;;0.65;0.57;;;22.30;53.90;;;;;;5079318;28;20028;-68
2023/08/10 08:33:44;;;;;;;1.20;0.70;;;22.30;53.90;;;;;;5077597;28;20424;-68
2023/08/10 08:36:10;;;;;;;0.60;0.60;;;22.30;53.80;;;;;;5057923;28;20386;-69
2023/08/10 08:38:36;;;;;;;0.85;0.70;;;22.30;53.80;;;;;;5078132;28;20077;-69
2023/08/10 08:41:08;;;;;;;1.00;0.65;;;22.30;53.80;;;;;;5078120;28;20425;-68
2023/08/10 08:43:35;;;;;;;0.90;0.63;;;22.30;53.80;;;;;;5076444;28;20089;-66
2023/08/10 08:46:02;;;;;;;0.90;0.70;;;22.30;53.80;;;;;;5078244;28;20078;-66
2023/08/10 08:48:29;;;;;;;0.70;0.63;;;22.30;53.80;;;;;;5078947;28;20036;-66
2023/08/10 08:50:56;;;;;;;0.57;0.50;;;22.30;53.80;;;;;;5078317;28;20789;-66
2023/08/10 08:53:22;;;;;;;1.25;0.80;;;22.30;53.80;;;;;;5069285;28;20036;-65
2023/08/10 08:55:48;;;;;;;0.93;0.60;;;22.30;53.80;;;;;;5078558;28;20438;-66
2023/08/10 08:58:15;;;;;;;0.77;0.70;;;22.30;53.80;;;;;;5078614;28;20033;-65
2023/08/10 09:00:52;;;;;;;0.90;0.70;;;22.30;53.70;;;;;;5075652;28;20089;-65
2023/08/10 09:03:25;;;;;;;1.02;0.70;;;22.30;53.70;;;;;;5078118;28;20020;-66
2023/08/10 09:05:51;;;;;;;0.70;0.60;;;22.30;53.70;;;;;;5075681;28;20043;-66
2023/08/10 09:08:18;;;;;;;0.90;0.60;;;22.30;53.70;;;;;;5079516;28;20448;-66
2023/08/10 09:10:46;;;;;;;0.57;0.57;;;22.20;54.10;;;;;;5078352;28;20444;-66
2023/08/10 09:13:21;;;;;;;0.93;0.60;;;22.30;53.70;;;;;;5079504;28;20135;-65
2023/08/10 09:16:02;;;;;;;0.50;0.50;;;22.30;53.60;;;;;;5065577;28;20030;-65
2023/08/10 09:18:32;;;;;;;0.68;0.63;;;22.30;53.60;;;;;;5076317;28;20024;-65
2023/08/10 09:21:14;;;;;;;0.68;0.57;;;22.30;53.60;;;;;;5065987;28;20024;-65
2023/08/10 09:23:48;;;;;;;0.77;0.70;;;22.30;53.60;;;;;;5075949;28;20027;-65
2023/08/10 09:26:18;;;;;;;0.47;0.47;;;22.30;53.70;;;;;;5076608;28;20062;-65
2023/08/10 09:28:49;;;;;;;0.90;0.63;;;22.30;53.60;;;;;;5065218;28;20056;-65
2023/08/10 09:31:24;;;;;;;0.73;0.68;;;22.30;53.60;;;;;;5078785;28;20036;-64
2023/08/10 09:33:58;;;;;;;1.30;0.70;;;22.30;53.60;;;;;;5076836;28;20021;-65
2023/08/10 09:36:26;;;;;;;0.60;0.55;;;22.30;53.60;;;;;;5076677;28;20028;-65
2023/08/10 09:38:53;;;;;;;0.98;0.65;;;22.30;53.50;;;;;;5075680;28;20039;-65
2023/08/10 09:41:20;;;;;;;1.40;0.73;;;22.30;53.50;;;;;;5076961;28;20384;-64
2023/08/10 09:43:46;;;;;;;1.27;0.80;;;22.30;53.50;;;;;;5075853;28;20111;-65
2023/08/10 09:46:14;;;;;;;1.42;0.70;;;22.30;53.60;;;;;;5076723;28;20059;-65
2023/08/10 09:48:50;;;;;;;0.65;0.55;;;22.30;53.50;;;;;;5060078;28;20396;-65
2023/08/10 09:51:16;;;;;;;0.80;0.70;;;22.30;53.50;;;;;;5065201;28;20388;-65
2023/08/10 09:53:42;;;;;;;0.90;0.60;;;22.30;53.50;;;;;;5078542;28;20127;-66
2023/08/10 09:56:08;;;;;;;0.90;0.73;;;22.30;53.50;;;;;;5077804;28;20401;-66
2023/08/10 09:58:38;;;;;;;0.80;0.63;;;22.30;53.50;;;;;;5079897;28;20135;-66
2023/08/10 10:01:05;;;;;;;1.20;0.80;;;22.30;53.50;;;;;;5077726;28;20494;-65
2023/08/10 10:03:32;;;;;;;1.05;0.75;;;22.30;53.40;;;;;;5076859;28;20097;-66
2023/08/10 10:05:59;;;;;;;0.65;0.60;;;22.30;53.40;;;;;;5075631;28;20024;-66
2023/08/10 10:08:28;;;;;;;0.75;0.70;;;22.30;53.40;;;;;;5076315;28;20124;-66
2023/08/10 10:11:02;;;;;;;0.85;0.70;;;22.30;53.40;;;;;;5077376;28;20028;-66
2023/08/10 10:13:28;;;;;;;0.70;0.60;;;22.20;53.40;;;;;;5076274;28;20024;-65
2023/08/10 10:15:55;;;;;;;0.63;0.57;;;22.30;53.40;;;;;;5077633;28;20139;-65
2023/08/10 10:18:21;;;;;;;0.82;0.60;;;22.30;53.40;;;;;;5077799;28;20406;-66
2023/08/10 10:20:48;;;;;;;0.60;0.60;;;22.30;53.40;;;;;;5075979;28;20034;-66
2023/08/10 10:23:18;;;;;;;0.50;0.50;;;22.30;53.40;;;;;;5077944;28;20062;-66
2023/08/10 10:25:55;;;;;;;0.63;0.60;;;22.30;53.40;;;;;;5076213;28;20025;-65
2023/08/10 10:28:21;;;;;;;0.65;0.60;;;22.30;53.40;;;;;;5077424;28;20111;-65
2023/08/10 10:30:55;;;;;;;0.77;0.60;;;22.30;53.40;;;;;;5077999;28;20028;-66
2023/08/10 10:33:22;;;;;;;0.80;0.70;;;22.30;53.40;;;;;;5076387;28;20067;-67
2023/08/10 10:36:08;;;;;;;0.85;0.65;;;22.30;53.30;;;;;;5075367;28;20040;-68
2023/08/10 10:38:34;;;;;;;0.70;0.60;;;22.30;53.40;;;;;;5079639;28;20024;-68
2023/08/10 10:41:27;;;;;;;0.90;0.70;;;22.30;53.30;;;;;;5076100;28;20424;-68
2023/08/10 10:43:52;;;;;;;1.25;0.90;;;22.30;53.30;;;;;;5081754;28;20578;-68
2023/08/10 10:46:33;;;;;;;1.35;0.75;;;22.30;53.30;;;;;;5078529;28;20024;-68
2023/08/10 10:49:06;;;;;;;0.88;0.70;;;22.30;53.30;;;;;;5079818;28;20085;-69
2023/08/10 10:51:32;;;;;;;1.00;0.80;;;22.30;53.20;;;;;;5081086;28;20550;-69
2023/08/10 10:53:58;;;;;;;1.00;0.70;;;22.30;53.20;;;;;;5081896;28;20103;-68
2023/08/10 10:56:27;;;;;;;0.95;0.70;;;22.30;53.20;;;;;;5081224;28;20036;-69
2023/08/10 10:58:52;;;;;;;0.93;0.70;;;22.30;53.20;;;;;;5078811;28;20066;-68
2023/08/10 11:01:19;;;;;;;0.77;0.65;;;22.30;53.20;;;;;;5079573;28;20059;-68
2023/08/10 11:03:52;;;;;;;0.98;0.80;;;22.30;53.20;;;;;;5064894;28;20032;-68
2023/08/10 11:06:20;;;;;;;0.70;0.70;;;22.30;53.10;;;;;;5078215;28;20041;-68
2023/08/10 11:08:50;;;;;;;0.93;0.75;;;22.40;53.20;;;;;;5061740;28;20550;-68
2023/08/10 11:11:17;;;;;;;0.80;0.80;;;22.40;53.20;;;;;;5081092;28;20790;-68
2023/08/10 11:13:43;;;;;;;1.02;0.90;;;22.40;53.20;;;;;;5082503;28;20073;-68
2023/08/10 11:16:09;;;;;;;1.30;0.93;;;22.40;53.10;;;;;;5079413;28;20031;-68
2023/08/10 11:18:37;;;;;;;1.00;0.70;;;22.40;53.20;;;;;;5064889;28;20071;-68
2023/08/10 11:21:06;;;;;;;0.98;0.80;;;22.40;53.10;;;;;;5077783;28;20040;-68
2023/08/10 11:23:32;;;;;;;0.80;0.70;;;22.40;53.10;;;;;;5079374;28;20040;-68
2023/08/10 11:25:57;;;;;;;1.08;0.80;;;22.40;53.10;;;;;;5080605;28;20399;-68
2023/08/10 11:28:25;;;;;;;0.63;0.60;;;22.40;53.10;;;;;;5082482;28;20107;-69
2023/08/10 11:30:51;;;;;;;0.82;0.70;;;22.40;53.10;;;;;;5079833;28;20572;-69
2023/08/10 11:33:18;;;;;;;1.38;0.90;;;22.40;53.10;;;;;;5079448;28;20089;-69
2023/08/10 11:35:50;;;;;;;1.75;0.98;;;22.40;53.10;;;;;;5078926;28;20510;-68
2023/08/10 11:38:16;;;;;;;1.13;0.80;;;22.40;53.10;;;;;;5077864;28;20024;-68
2023/08/10 11:40:42;;;;;;;1.30;0.80;;;22.40;53.10;;;;;;5081328;28;20029;-69
2023/08/10 11:43:11;;;;;;;0.90;0.70;;;22.40;53.10;;;;;;5070148;28;20036;-69
2023/08/10 11:45:38;;;;;;;0.93;0.70;;;22.40;53.10;;;;;;5080847;28;20024;-68
2023/08/10 11:48:10;;;;;;;0.80;0.75;;;22.40;53.10;;;;;;5079002;28;20098;-68
2023/08/10 11:50:38;;;;;;;1.00;0.80;;;22.40;53.10;;;;;;5079302;28;20020;-68
2023/08/10 11:53:20;;;;;;;0.80;0.70;;;22.40;53.10;;;;;;5077891;28;20103;-68
2023/08/10 11:55:50;;;;;;;0.77;0.70;;;22.50;53.10;;;;;;5078805;28;20024;-67
2023/08/10 11:58:17;;;;;;;1.27;0.80;;;22.50;53.10;;;;;;5079327;28;20031;-68
2023/08/10 12:00:49;;;;;;;1.02;0.70;;;22.50;53.10;;;;;;5079044;28;20108;-67
2023/08/10 12:03:26;;;;;;;1.38;0.77;;;22.50;53.10;;;;;;5079064;28;20016;-67
2023/08/10 12:05:52;;;;;;;0.70;0.70;;;22.50;53.10;;;;;;5079075;28;20035;-67
2023/08/10 12:08:25;;;;;;;1.35;0.93;;;22.50;53.10;;;;;;5078930;28;20031;-67
2023/08/10 12:11:01;;;;;;;0.70;0.70;;;22.50;53.10;;;;;;5079920;28;20475;-68
2023/08/10 12:13:26;;;;;;;0.98;0.73;;;22.50;53.10;;;;;;5076173;28;20093;-64
2023/08/10 12:15:53;;;;;;;0.70;0.70;;;22.50;53.10;;;;;;5078368;28;20028;-64
2023/08/10 12:18:21;;;;;;;0.63;0.63;;;22.50;53.10;;;;;;5079614;28;20077;-65
2023/08/10 12:20:49;;;;;;;1.10;0.80;;;22.50;53.10;;;;;;5079060;28;20106;-63
2023/08/10 12:23:16;;;;;;;1.10;0.80;;;22.50;53.00;;;;;;5060631;28;20077;-64
2023/08/10 12:25:46;;;;;;;1.10;0.80;;;22.50;53.00;;;;;;5080383;28;20020;-67
2023/08/10 12:28:13;;;;;;;1.48;0.90;;;22.50;53.00;;;;;;5077693;28;20017;-67
2023/08/10 12:30:39;;;;;;;1.13;0.80;;;22.50;53.00;;;;;;5077551;28;20028;-67
2023/08/10 12:33:10;;;;;;;0.70;0.57;;;22.50;53.00;;;;;;5079406;28;20567;-67
2023/08/10 12:35:36;;;;;;;1.20;0.88;;;22.60;53.00;;;;;;5078769;28;20418;-68
2023/08/10 12:38:03;;;;;;;1.27;0.80;;;22.60;53.10;;;;;;5077457;28;20451;-68
2023/08/10 12:40:30;;;;;;;1.10;0.90;;;22.60;53.00;;;;;;5079131;28;20503;-67
2023/08/10 12:42:57;;;;;;;1.27;0.90;;;22.60;53.00;;;;;;5080268;28;20023;-67
2023/08/10 12:45:23;;;;;;;1.20;0.88;;;22.60;53.00;;;;;;5078684;28;20118;-71
2023/08/10 12:47:48;;;;;;;1.13;0.85;;;22.60;53.10;;;;;;5078162;28;20067;-67
2023/08/10 12:50:15;;;;;;;1.02;0.80;;;22.60;53.10;;;;;;5078949;28;20105;-67